Main page
Satellite images 10-day forecastsClimateMarine weather Cyclones Lightning AirportsFAQ Newsletter About
Weather : Europe Africa North America South America Asia Australia-Oceania Others
Languages Contact

Bordeaux, France

Bordeaux–Mérignac Airport

latitude: 44-50N, longitude: 000-42W, elevation: 49 m


METAR: LFBD 291830Z AUTO 12009KT CAVOK 31/20 Q1014
TAF: LFBD 291700Z 2918/3024 13008KT CAVOK TEMPO 3015/3024 13010G20KT

Time: 20:51 (18:51 UTC)

Current weather observation

The report was made 21 minutes ago, at 18:30 UTC
Wind 9 kt from the East/Southeast
Temperature 31°C
Humidity 52%
Pressure 1014 hPa
Visibility 10 km or more
no clouds below 1500 m and no cumulonimbus

Change units

Forecast

The report was made 1 hour and 51 minutes ago, at 17:00 UTC
Forecast valid from 29 at 18 UTC to 30 at 24 UTC
Wind 8 kt from the Southeast
Visibility 10 km or more
no clouds below 1500 m and no cumulonimbus
Temporary
from 30 at 15 UTC to 30 at 24 UTC
Wind 10 kt from the Southeast with gusts up to 20 kt
The information on this site is subject to a disclaimer
Weather : Europe Africa North America South America Asia Australia-Oceania Others
Satellite images 10-day forecastsClimateMarine weather Cyclones Lightning AirportsFAQ Languages Contact Newsletter About